Time;durP1;ratioP1;P1;durP2;ratioP2;P2;SDS_P1;SDS_P2;PMS_P1;PMS_P2;Temp;Humidity;BMP_temperature;BMP_pressure;BME280_temperature;BME280_humidity;BME280_pressure;Samples;Min_cycle;Max_cycle;Signal;HPM_P1;HPM_P2
2021/01/23 00:00:11;;;;;;;2.60;2.40;;;4.70;80.90;;;;;;5005373;28;20470;-77
2021/01/23 00:02:38;;;;;;;3.53;3.23;;;4.70;80.50;;;;;;5004574;28;20502;-77
2021/01/23 00:05:07;;;;;;;3.23;2.73;;;4.70;80.00;;;;;;5010140;28;21285;-78
2021/01/23 00:07:34;;;;;;;3.10;2.77;;;4.70;79.80;;;;;;5007669;28;20455;-78
2021/01/23 00:10:02;;;;;;;2.77;2.57;;;4.70;79.90;;;;;;5006258;28;20463;-78
2021/01/23 00:12:29;;;;;;;2.50;2.30;;;4.70;79.70;;;;;;5004640;28;20486;-78
2021/01/23 00:14:56;;;;;;;2.53;2.33;;;4.70;79.60;;;;;;5007717;28;20467;-77
2021/01/23 00:17:22;;;;;;;2.30;2.10;;;4.70;79.30;;;;;;5002828;28;20483;-78
2021/01/23 00:19:49;;;;;;;2.60;2.40;;;4.60;80.10;;;;;;5003529;28;20458;-78
2021/01/23 00:22:17;;;;;;;2.80;2.60;;;;;;;;;;5001125;28;20458;-78
2021/01/23 00:24:43;;;;;;;3.40;3.10;;;4.60;81.70;;;;;;5007643;28;20454;-78
2021/01/23 00:27:10;;;;;;;3.77;3.20;;;4.50;86.00;;;;;;5009464;28;20461;-78
2021/01/23 00:29:37;;;;;;;4.20;3.80;;;4.50;87.90;;;;;;5024347;28;20443;-77
2021/01/23 00:32:03;;;;;;;4.67;3.83;;;4.50;89.40;;;;;;5030668;28;20459;-78
2021/01/23 00:34:30;;;;;;;3.77;3.43;;;4.40;90.70;;;;;;5006777;28;20903;-78
2021/01/23 00:36:56;;;;;;;4.40;4.00;;;4.40;90.80;;;;;;5003146;28;20476;-78
2021/01/23 00:39:23;;;;;;;5.07;4.57;;;4.30;92.30;;;;;;5002950;28;20793;-78
2021/01/23 00:41:50;;;;;;;4.60;3.20;;;4.20;94.40;;;;;;5005361;28;20487;-78
2021/01/23 00:44:16;;;;;;;4.80;4.40;;;4.20;94.60;;;;;;5006085;28;20770;-78
2021/01/23 00:46:43;;;;;;;4.20;3.80;;;4.00;97.00;;;;;;5004690;28;20505;-77
2021/01/23 00:49:09;;;;;;;4.43;4.03;;;4.00;97.90;;;;;;5003503;28;20454;-78
2021/01/23 00:51:36;;;;;;;4.20;3.90;;;4.00;97.10;;;;;;5004359;28;20458;-78
2021/01/23 00:54:02;;;;;;;4.17;3.73;;;4.00;99.90;;;;;;5006020;28;20465;-78
2021/01/23 00:56:30;;;;;;;4.77;4.10;;;3.90;99.90;;;;;;5004481;28;20472;-77
2021/01/23 00:58:56;;;;;;;4.23;3.83;;;3.90;99.90;;;;;;5002895;28;20452;-79
2021/01/23 01:01:22;;;;;;;4.30;3.80;;;3.80;99.90;;;;;;5003615;28;20455;-78
2021/01/23 01:03:50;;;;;;;4.47;4.07;;;3.70;99.90;;;;;;5003009;28;20797;-78
2021/01/23 01:06:16;;;;;;;5.53;4.40;;;3.80;99.90;;;;;;5005742;28;20463;-78
2021/01/23 01:08:43;;;;;;;7.57;4.10;;;3.70;99.90;;;;;;5008128;28;20518;-78
2021/01/23 01:11:09;;;;;;;4.00;3.60;;;3.60;99.90;;;;;;5005101;28;20490;-78
2021/01/23 01:13:37;;;;;;;4.47;4.07;;;3.70;99.90;;;;;;5008683;28;20536;-78
2021/01/23 01:16:04;;;;;;;4.43;4.00;;;3.60;99.90;;;;;;5012194;28;20510;-78
2021/01/23 01:18:30;;;;;;;7.40;4.43;;;3.60;99.90;;;;;;5007174;28;20448;-78
2021/01/23 01:20:57;;;;;;;5.30;3.80;;;3.50;99.90;;;;;;5008797;28;20467;-78
2021/01/23 01:23:23;;;;;;;4.17;3.73;;;3.50;99.90;;;;;;5009557;28;20470;-78
2021/01/23 01:25:49;;;;;;;4.50;4.10;;;3.50;99.90;;;;;;5010037;28;20471;-78
2021/01/23 01:28:16;;;;;;;4.37;3.97;;;3.40;99.90;;;;;;5017732;28;21054;-78
2021/01/23 01:30:43;;;;;;;4.37;3.97;;;3.40;99.90;;;;;;5016346;28;20447;-77
2021/01/23 01:33:10;;;;;;;4.60;3.93;;;3.40;99.90;;;;;;5013141;28;20549;-79
2021/01/23 01:35:37;;;;;;;4.97;4.47;;;3.40;99.90;;;;;;5004456;28;20502;-78
2021/01/23 01:38:03;;;;;;;6.73;4.23;;;3.40;99.90;;;;;;5012979;28;20463;-78
2021/01/23 01:40:30;;;;;;;4.90;4.40;;;3.40;99.90;;;;;;5002903;28;20458;-78
2021/01/23 01:42:57;;;;;;;4.30;3.90;;;3.40;99.90;;;;;;5011826;28;20532;-78
2021/01/23 01:45:24;;;;;;;4.30;3.83;;;3.40;99.90;;;;;;5008124;28;20458;-78
2021/01/23 01:47:51;;;;;;;5.10;4.50;;;3.40;99.90;;;;;;5006057;28;20454;-78
2021/01/23 01:50:17;;;;;;;4.27;3.63;;;3.30;99.90;;;;;;5002050;28;20478;-79
2021/01/23 01:52:45;;;;;;;4.67;3.97;;;3.30;99.90;;;;;;5007285;28;20458;-78
2021/01/23 01:55:14;;;;;;;4.27;3.87;;;3.30;99.90;;;;;;5010362;28;20462;-80
2021/01/23 01:57:41;;;;;;;6.20;4.20;;;3.30;99.90;;;;;;5010015;28;20469;-80
2021/01/23 02:00:08;;;;;;;4.83;4.23;;;3.30;99.90;;;;;;5013130;28;20505;-80
2021/01/23 02:02:55;;;;;;;4.17;3.77;;;3.30;99.90;;;;;;5012245;28;20550;-80
2021/01/23 02:05:30;;;;;;;11.73;4.40;;;3.30;99.90;;;;;;5012253;28;20443;-80
2021/01/23 02:08:05;;;;;;;4.63;4.10;;;3.30;99.90;;;;;;5008524;28;20485;-80
2021/01/23 02:10:45;;;;;;;5.30;4.13;;;3.30;99.90;;;;;;5012588;28;20459;-80
2021/01/23 02:13:21;;;;;;;4.20;3.40;;;3.30;99.90;;;;;;5014741;28;20554;-81
2021/01/23 02:16:04;;;;;;;3.97;3.57;;;3.30;99.90;;;;;;5013321;28;20477;-81
2021/01/23 02:18:39;;;;;;;4.30;3.90;;;3.30;99.90;;;;;;5015351;28;20475;-81
2021/01/23 02:21:39;;;;;;;5.63;4.60;;;3.20;99.90;;;;;;5019526;28;22059;-81
2021/01/23 02:24:07;;;;;;;4.33;3.93;;;3.20;99.90;;;;;;5019057;28;20459;-81
2021/01/23 02:26:45;;;;;;;4.87;3.50;;;3.20;99.90;;;;;;5021832;28;20458;-81
2021/01/23 02:29:16;;;;;;;4.33;3.93;;;3.20;99.90;;;;;;5020440;28;20482;-81
2021/01/23 02:31:48;;;;;;;4.50;4.10;;;3.20;99.90;;;;;;5021759;28;20451;-81
2021/01/23 02:34:19;;;;;;;5.77;4.00;;;3.10;99.90;;;;;;5022810;28;21226;-81
2021/01/23 02:36:47;;;;;;;8.00;4.23;;;;;;;;;;5020616;28;20512;-81
2021/01/23 02:39:16;;;;;;;6.40;4.83;;;2.90;99.90;;;;;;5018555;28;20486;-82
2021/01/23 02:41:43;;;;;;;5.00;4.03;;;2.90;99.90;;;;;;5017537;28;20524;-82
2021/01/23 02:44:10;;;;;;;4.90;4.20;;;2.80;99.90;;;;;;5013346;28;20485;-82
2021/01/23 02:46:37;;;;;;;5.70;4.40;;;2.70;99.90;;;;;;5012220;28;20444;-82
2021/01/23 02:49:05;;;;;;;6.73;5.33;;;2.50;99.90;;;;;;5022244;28;20443;-82
2021/01/23 02:51:37;;;;;;;6.67;5.17;;;2.50;99.90;;;;;;5011115;28;20467;-82
2021/01/23 02:54:08;;;;;;;6.67;5.33;;;2.10;99.90;;;;;;5017171;28;20457;-82
2021/01/23 02:56:35;;;;;;;7.70;5.33;;;1.90;99.90;;;;;;5015699;28;20491;-82
2021/01/23 02:59:05;;;;;;;5.37;4.83;;;1.80;99.90;;;;;;5018763;28;20454;-83
2021/01/23 03:01:35;;;;;;;7.60;5.27;;;1.60;99.90;;;;;;5027437;28;20462;-83
2021/01/23 03:04:03;;;;;;;7.63;5.17;;;1.20;99.90;;;;;;5031199;28;20579;-84
2021/01/23 03:06:31;;;;;;;8.00;5.50;;;1.10;99.90;;;;;;5026098;28;20457;-83
2021/01/23 03:08:58;;;;;;;9.23;6.13;;;1.10;99.90;;;;;;5020376;28;20480;-82
2021/01/23 03:11:24;;;;;;;7.13;5.40;;;1.00;99.90;;;;;;5028647;28;20449;-83
2021/01/23 03:13:51;;;;;;;5.87;4.97;;;0.90;99.90;;;;;;5020752;28;20475;-81
2021/01/23 03:16:20;;;;;;;5.43;4.90;;;0.80;99.90;;;;;;5022628;28;20475;-83
2021/01/23 03:18:46;;;;;;;6.50;5.50;;;0.80;99.90;;;;;;5026803;28;20439;-81
2021/01/23 03:21:13;;;;;;;4.90;4.40;;;0.80;99.90;;;;;;5019660;28;20482;-81
2021/01/23 03:23:40;;;;;;;5.40;4.50;;;0.80;99.90;;;;;;5017810;28;20451;-80
2021/01/23 03:26:06;;;;;;;4.90;4.10;;;0.70;99.90;;;;;;5018345;28;20455;-82
2021/01/23 03:28:33;;;;;;;5.60;5.00;;;0.70;99.90;;;;;;5015785;28;20495;-82
2021/01/23 03:30:59;;;;;;;4.23;3.80;;;0.80;99.90;;;;;;5014949;28;20455;-83
2021/01/23 03:33:26;;;;;;;4.90;4.07;;;0.70;99.90;;;;;;5013914;28;20452;-83
2021/01/23 03:35:52;;;;;;;4.00;3.60;;;0.70;99.90;;;;;;5019809;28;20507;-82
2021/01/23 03:38:18;;;;;;;3.40;3.10;;;0.60;99.90;;;;;;5012534;28;20537;-83
2021/01/23 03:40:46;;;;;;;2.93;2.67;;;0.60;99.90;;;;;;5015179;28;20456;-83
2021/01/23 03:43:12;;;;;;;2.37;2.13;;;0.60;99.90;;;;;;5016961;28;20454;-81
2021/01/23 03:45:39;;;;;;;2.50;2.30;;;0.60;99.90;;;;;;5014326;28;20475;-82
2021/01/23 03:48:06;;;;;;;1.70;1.60;;;0.60;99.90;;;;;;5013511;28;20597;-82
2021/01/23 03:50:32;;;;;;;2.80;1.50;;;0.60;99.90;;;;;;5010803;28;20489;-81
2021/01/23 03:52:59;;;;;;;1.10;1.10;;;0.60;99.90;;;;;;5013060;28;20478;-82
2021/01/23 03:55:25;;;;;;;1.70;1.60;;;0.60;99.90;;;;;;5013010;28;20463;-83
2021/01/23 03:57:53;;;;;;;0.90;0.90;;;0.60;99.90;;;;;;5026807;28;20447;-83
2021/01/23 04:00:20;;;;;;;0.83;0.83;;;0.60;99.90;;;;;;5028412;28;20450;-83
2021/01/23 04:02:46;;;;;;;1.17;1.17;;;0.60;99.90;;;;;;5030726;28;20508;-83
2021/01/23 04:05:13;;;;;;;1.10;1.10;;;0.70;99.90;;;;;;5024351;28;20453;-81
2021/01/23 04:07:40;;;;;;;1.33;1.23;;;0.60;99.90;;;;;;5020479;28;20519;-82
2021/01/23 04:10:08;;;;;;;2.97;1.00;;;0.60;99.90;;;;;;5023737;28;20470;-81
2021/01/23 04:12:35;;;;;;;1.40;0.80;;;0.60;99.90;;;;;;5024431;28;20479;-81
2021/01/23 04:15:02;;;;;;;0.93;0.93;;;0.60;99.90;;;;;;5018345;28;20465;-82
2021/01/23 04:17:29;;;;;;;1.00;0.90;;;0.60;99.90;;;;;;5021627;28;20491;-83
2021/01/23 04:19:55;;;;;;;0.87;0.87;;;0.60;99.90;;;;;;5026485;28;20451;-81
2021/01/23 04:22:22;;;;;;;0.90;0.90;;;0.60;99.90;;;;;;5020659;28;20451;-82
2021/01/23 04:24:48;;;;;;;1.47;1.37;;;0.60;99.90;;;;;;5019894;28;20527;-81
2021/01/23 04:27:15;;;;;;;1.23;1.23;;;0.60;99.90;;;;;;5018562;28;20465;-81
2021/01/23 04:29:41;;;;;;;2.50;1.17;;;0.70;99.90;;;;;;5020813;28;20442;-81
2021/01/23 04:32:08;;;;;;;0.73;0.73;;;0.60;99.90;;;;;;5013745;28;20461;-81
2021/01/23 04:34:35;;;;;;;0.87;0.87;;;0.60;99.90;;;;;;5015170;28;20479;-81
2021/01/23 04:37:01;;;;;;;0.97;0.97;;;0.60;99.90;;;;;;5015881;28;20474;-80
2021/01/23 04:39:28;;;;;;;1.30;1.20;;;0.60;99.90;;;;;;5010661;28;20451;-80
2021/01/23 04:41:55;;;;;;;0.93;0.93;;;0.60;99.90;;;;;;5009348;28;20535;-81
2021/01/23 04:44:21;;;;;;;0.83;0.83;;;0.60;99.90;;;;;;5017220;28;20445;-81
2021/01/23 04:46:48;;;;;;;1.20;1.10;;;0.60;99.90;;;;;;5015181;28;20458;-80
2021/01/23 04:49:15;;;;;;;1.60;1.20;;;0.60;99.90;;;;;;5010123;28;20461;-80
2021/01/23 04:51:42;;;;;;;0.87;0.87;;;0.60;99.90;;;;;;5020964;28;20451;-80
2021/01/23 04:54:09;;;;;;;0.87;0.87;;;0.50;99.90;;;;;;5020136;28;20493;-81
2021/01/23 04:56:36;;;;;;;1.00;1.00;;;0.60;99.90;;;;;;5019971;28;20470;-81
2021/01/23 04:59:04;;;;;;;0.90;0.90;;;0.60;99.90;;;;;;5013197;28;20467;-80
2021/01/23 05:01:30;;;;;;;1.00;1.00;;;0.60;99.90;;;;;;5024972;28;20457;-80
2021/01/23 05:03:57;;;;;;;0.90;0.90;;;0.60;99.90;;;;;;5023119;28;21126;-80
2021/01/23 05:06:25;;;;;;;1.10;1.00;;;0.60;99.90;;;;;;5018909;28;20446;-81
2021/01/23 05:08:52;;;;;;;1.13;1.03;;;0.60;99.90;;;;;;5017389;28;20830;-81
2021/01/23 05:11:19;;;;;;;0.80;0.80;;;0.60;99.90;;;;;;5022850;28;20455;-80
2021/01/23 05:14:10;;;;;;;0.50;0.50;;;0.60;99.90;;;;;;5016627;28;20541;-80
2021/01/23 05:16:36;;;;;;;1.03;1.03;;;0.60;99.90;;;;;;5028107;28;20478;-82
2021/01/23 05:19:03;;;;;;;0.80;0.80;;;0.60;99.90;;;;;;5015712;28;20539;-80
2021/01/23 05:21:34;;;;;;;1.37;1.27;;;0.70;99.90;;;;;;5016104;28;20708;-81
2021/01/23 05:24:07;;;;;;;1.07;1.07;;;0.70;99.90;;;;;;5019348;28;20465;-81
2021/01/23 05:26:34;;;;;;;1.00;1.00;;;0.70;99.90;;;;;;5016776;28;20477;-82
2021/01/23 05:29:10;;;;;;;1.10;1.00;;;0.70;99.90;;;;;;5023247;28;20456;-81
2021/01/23 05:31:37;;;;;;;1.07;1.07;;;0.70;99.90;;;;;;5022002;28;20445;-82
2021/01/23 05:34:26;;;;;;;1.50;1.23;;;0.70;99.90;;;;;;5017079;28;20458;-81
2021/01/23 05:36:54;;;;;;;1.97;1.50;;;0.70;99.90;;;;;;5013900;28;20501;-81
2021/01/23 05:39:21;;;;;;;1.33;1.17;;;0.70;99.90;;;;;;5018572;28;20584;-81
2021/01/23 05:42:05;;;;;;;1.30;1.20;;;0.70;99.90;;;;;;5016788;28;20468;-81
2021/01/23 05:44:31;;;;;;;1.27;1.10;;;0.70;99.90;;;;;;5016666;28;20550;-81
2021/01/23 05:46:58;;;;;;;2.27;2.07;;;0.70;99.90;;;;;;5014260;28;20861;-81
2021/01/23 05:49:24;;;;;;;2.23;2.03;;;0.70;99.90;;;;;;5011132;28;20830;-81
2021/01/23 05:51:51;;;;;;;2.37;2.10;;;0.70;99.90;;;;;;5009760;28;20835;-81
2021/01/23 05:54:18;;;;;;;1.90;1.80;;;0.70;99.90;;;;;;5011604;28;20448;-81
2021/01/23 05:56:46;;;;;;;2.60;2.37;;;0.80;99.90;;;;;;5013584;28;20922;-81
2021/01/23 05:59:13;;;;;;;2.60;2.40;;;0.70;99.90;;;;;;5011966;28;20567;-81
2021/01/23 06:01:40;;;;;;;2.10;1.90;;;0.80;99.90;;;;;;5010089;28;20537;-81
2021/01/23 06:04:13;;;;;;;2.37;2.17;;;0.80;99.90;;;;;;5012402;28;20826;-81
2021/01/23 06:06:47;;;;;;;2.80;2.47;;;0.70;99.90;;;;;;5010907;28;20547;-81
2021/01/23 06:09:33;;;;;;;2.00;1.90;;;0.80;99.90;;;;;;5012007;28;20485;-81
2021/01/23 06:12:00;;;;;;;2.50;2.30;;;0.80;99.90;;;;;;5014771;28;20465;-81
2021/01/23 06:14:38;;;;;;;2.07;1.87;;;0.70;99.90;;;;;;5016913;28;20480;-81
2021/01/23 06:17:04;;;;;;;2.33;2.13;;;0.70;99.90;;;;;;5009752;28;20475;-81
2021/01/23 06:19:44;;;;;;;5.63;2.90;;;0.80;99.90;;;;;;5019049;28;20443;-80
2021/01/23 06:22:11;;;;;;;2.97;2.30;;;0.80;99.90;;;;;;5015814;28;20543;-81
2021/01/23 06:24:55;;;;;;;3.23;2.97;;;0.80;99.90;;;;;;5022258;28;20451;-81
2021/01/23 06:27:48;;;;;;;2.90;2.70;;;0.80;99.90;;;;;;5021881;28;20542;-81
2021/01/23 06:30:28;;;;;;;5.37;3.37;;;0.80;99.90;;;;;;5013409;28;20452;-81
2021/01/23 06:32:55;;;;;;;3.80;3.20;;;0.80;99.90;;;;;;5030418;28;20459;-81
2021/01/23 06:35:21;;;;;;;10.83;3.77;;;0.80;99.90;;;;;;5021722;28;20469;-81
2021/01/23 06:37:48;;;;;;;3.50;3.20;;;0.80;99.90;;;;;;5013192;28;20466;-81
2021/01/23 06:40:17;;;;;;;3.23;2.97;;;0.90;99.90;;;;;;5017122;28;20840;-81
2021/01/23 06:42:47;;;;;;;3.60;3.30;;;0.80;99.90;;;;;;5017889;28;20497;-80
2021/01/23 06:45:19;;;;;;;4.07;3.60;;;0.90;99.90;;;;;;5024964;28;20473;-81
2021/01/23 06:47:48;;;;;;;4.30;3.17;;;0.90;99.90;;;;;;5024085;28;20469;-81
2021/01/23 06:50:27;;;;;;;4.10;3.27;;;0.80;99.90;;;;;;5019559;28;20439;-81
2021/01/23 06:52:54;;;;;;;4.00;3.60;;;0.90;99.90;;;;;;5017083;28;20465;-80
2021/01/23 06:55:52;;;;;;;4.00;3.43;;;0.90;99.90;;;;;;5015333;28;20801;-80
2021/01/23 06:58:21;;;;;;;4.00;3.60;;;0.80;99.90;;;;;;5019662;28;20524;-80
2021/01/23 07:00:50;;;;;;;5.20;3.87;;;0.80;99.90;;;;;;5020815;28;20478;-80
2021/01/23 07:03:17;;;;;;;5.57;4.67;;;0.80;99.90;;;;;;5010047;28;20463;-80
2021/01/23 07:05:48;;;;;;;6.57;5.23;;;0.80;99.90;;;;;;5018737;28;20576;-79
2021/01/23 07:08:22;;;;;;;5.53;4.70;;;0.80;99.90;;;;;;5011463;28;21017;-80
2021/01/23 07:11:13;;;;;;;6.77;5.10;;;0.80;99.90;;;;;;5015783;28;20464;-79
2021/01/23 07:13:57;;;;;;;6.80;5.60;;;0.80;99.90;;;;;;5014700;28;20467;-80
2021/01/23 07:16:24;;;;;;;7.23;5.20;;;0.80;99.90;;;;;;5022184;28;20467;-82
2021/01/23 07:18:55;;;;;;;7.60;6.43;;;0.80;99.90;;;;;;5024552;28;20456;-80
2021/01/23 07:21:23;;;;;;;7.83;5.80;;;0.80;99.90;;;;;;5021844;28;20498;-80
2021/01/23 07:23:49;;;;;;;7.20;5.90;;;0.90;99.90;;;;;;5015172;28;20455;-81
2021/01/23 07:26:18;;;;;;;8.90;6.40;;;0.90;99.90;;;;;;5018149;28;20457;-81
2021/01/23 07:28:47;;;;;;;9.87;6.77;;;0.90;99.90;;;;;;5018161;28;21141;-81
2021/01/23 07:31:18;;;;;;;12.20;6.70;;;0.90;99.90;;;;;;5031589;28;20437;-81
2021/01/23 07:33:45;;;;;;;11.47;7.30;;;0.90;99.90;;;;;;5025513;28;20493;-80
2021/01/23 07:36:11;;;;;;;8.73;7.40;;;0.90;99.90;;;;;;5019212;28;21045;-81
2021/01/23 07:38:38;;;;;;;8.93;6.63;;;0.90;99.90;;;;;;5011764;28;20464;-81
2021/01/23 07:41:05;;;;;;;10.43;7.70;;;0.90;99.90;;;;;;5010988;28;20496;-80
2021/01/23 07:43:34;;;;;;;10.83;7.70;;;0.90;99.90;;;;;;5012097;28;20482;-80
2021/01/23 07:46:01;;;;;;;13.57;8.90;;;0.90;99.90;;;;;;5009967;28;20821;-80
2021/01/23 07:48:40;;;;;;;10.80;8.40;;;0.90;99.90;;;;;;5010806;28;20562;-80
2021/01/23 07:51:06;;;;;;;11.50;8.60;;;1.00;99.90;;;;;;5005831;28;20450;-80
2021/01/23 07:53:33;;;;;;;12.00;8.40;;;1.00;99.90;;;;;;5006568;28;20973;-79
2021/01/23 07:55:59;;;;;;;11.87;8.93;;;1.00;99.90;;;;;;5008176;28;20453;-81
2021/01/23 07:58:26;;;;;;;12.80;8.80;;;1.00;99.90;;;;;;5006824;28;20529;-80
2021/01/23 08:00:53;;;;;;;11.13;8.47;;;;;;;;;;5009139;28;20978;-80
2021/01/23 08:03:34;;;;;;;12.83;8.93;;;1.10;99.90;;;;;;5006542;28;20466;-81
2021/01/23 08:06:01;;;;;;;11.00;8.03;;;1.10;99.90;;;;;;5020068;28;20466;-80
2021/01/23 08:08:29;;;;;;;13.97;9.47;;;1.10;99.90;;;;;;5017117;28;20505;-81
2021/01/23 08:10:57;;;;;;;11.27;7.87;;;1.10;99.90;;;;;;5018181;28;21082;-80
2021/01/23 08:13:28;;;;;;;13.90;10.25;;;1.10;99.90;;;;;;5020384;28;20514;-78
2021/01/23 08:16:15;;;;;;;13.20;9.70;;;1.30;99.90;;;;;;5020136;28;20457;-86
2021/01/23 08:18:45;;;;;;;14.87;10.80;;;1.10;99.90;;;;;;5019905;28;20451;-81
2021/01/23 08:21:18;;;;;;;13.33;9.00;;;1.20;99.90;;;;;;5020422;28;20478;-78
2021/01/23 08:23:46;;;;;;;13.30;9.13;;;1.20;99.90;;;;;;5016991;28;20462;-81
2021/01/23 08:26:14;;;;;;;13.67;8.60;;;1.30;99.90;;;;;;5018650;28;20553;-85
2021/01/23 08:28:43;;;;;;;12.03;8.20;;;1.30;99.90;;;;;;5020839;28;20459;-84
2021/01/23 08:33:58;;;;;;;12.90;8.70;;;1.30;99.90;;;;;;5015592;28;20462;-81
2021/01/23 08:36:26;;;;;;;10.10;8.53;;;1.30;99.90;;;;;;5017409;28;20498;-81
2021/01/23 08:38:57;;;;;;;16.47;8.97;;;1.30;99.90;;;;;;5026863;28;20467;-83
2021/01/23 08:41:24;;;;;;;9.90;7.40;;;1.30;99.90;;;;;;5026846;28;20468;-83
2021/01/23 08:43:51;;;;;;;11.17;8.20;;;1.40;99.90;;;;;;5027488;28;20445;-79
2021/01/23 08:46:19;;;;;;;10.93;8.70;;;1.40;99.90;;;;;;5032641;28;20463;-84
2021/01/23 08:48:48;;;;;;;12.30;8.37;;;1.40;99.90;;;;;;5030726;28;20489;-84
2021/01/23 08:51:15;;;;;;;12.87;8.97;;;1.40;99.90;;;;;;5041021;28;20451;-84
2021/01/23 08:53:42;;;;;;;12.27;8.40;;;1.50;99.90;;;;;;5029354;28;20467;-82
2021/01/23 08:56:11;;;;;;;11.90;9.13;;;1.50;99.90;;;;;;5034592;28;20473;-83
2021/01/23 08:58:37;;;;;;;11.30;8.77;;;1.50;99.90;;;;;;5026916;28;20485;-82
2021/01/23 09:01:04;;;;;;;12.23;8.50;;;1.50;99.90;;;;;;5018326;28;20470;-81
2021/01/23 09:03:32;;;;;;;12.27;8.80;;;1.60;99.90;;;;;;5015055;28;20464;-80
2021/01/23 09:05:59;;;;;;;14.93;9.53;;;1.60;99.90;;;;;;5013437;28;20443;-82
2021/01/23 09:08:25;;;;;;;16.40;9.57;;;1.80;99.90;;;;;;5015252;28;20451;-82
2021/01/23 09:10:51;;;;;;;13.53;9.23;;;1.80;99.90;;;;;;5017733;28;20465;-80
2021/01/23 09:13:18;;;;;;;15.83;9.53;;;1.90;99.90;;;;;;5016119;28;20506;-81
2021/01/23 09:15:45;;;;;;;13.43;7.77;;;2.00;99.90;;;;;;5018845;28;20452;-81
2021/01/23 09:18:11;;;;;;;12.40;8.50;;;2.10;99.90;;;;;;5020517;28;20476;-80
2021/01/23 09:20:39;;;;;;;14.70;9.07;;;2.10;97.90;;;;;;5028622;28;20882;-80
2021/01/23 09:23:06;;;;;;;16.60;10.87;;;2.30;99.90;;;;;;5027394;28;20455;-82
2021/01/23 09:25:32;;;;;;;12.63;8.67;;;2.60;99.90;;;;;;5030460;28;20463;-81
2021/01/23 09:27:59;;;;;;;10.77;8.20;;;2.50;97.30;;;;;;5025876;28;20443;-82
2021/01/23 09:30:26;;;;;;;11.63;7.80;;;2.60;96.20;;;;;;5033897;28;20465;-82
2021/01/23 09:32:52;;;;;;;11.10;7.80;;;2.60;95.50;;;;;;5031059;28;20450;-81
2021/01/23 09:35:19;;;;;;;12.27;8.43;;;2.70;95.30;;;;;;5025759;28;20486;-82
2021/01/23 09:37:47;;;;;;;13.10;9.20;;;2.40;93.60;;;;;;5021526;28;20482;-82
2021/01/23 09:40:14;;;;;;;15.10;9.80;;;2.40;95.80;;;;;;5019361;28;20482;-82
2021/01/23 09:42:42;;;;;;;18.13;11.13;;;2.40;95.20;;;;;;5022168;28;20470;-81
2021/01/23 09:45:09;;;;;;;16.57;11.23;;;2.50;96.70;;;;;;5019245;28;20460;-81
2021/01/23 09:47:36;;;;;;;17.40;11.80;;;2.60;94.10;;;;;;5027356;28;20922;-82
2021/01/23 09:50:03;;;;;;;17.90;14.00;;;2.80;96.60;;;;;;5020626;28;20870;-83
2021/01/23 09:52:30;;;;;;;20.83;14.33;;;3.00;96.40;;;;;;5010016;28;20465;-80
2021/01/23 09:54:57;;;;;;;24.03;15.43;;;2.90;91.60;;;;;;5004405;28;20513;-78
2021/01/23 09:57:24;;;;;;;21.80;16.33;;;2.80;91.10;;;;;;5013847;28;21315;-80
2021/01/23 09:59:50;;;;;;;23.53;15.03;;;2.70;92.10;;;;;;5016122;28;20484;-82
2021/01/23 10:02:17;;;;;;;23.00;16.03;;;2.90;94.30;;;;;;5020832;28;20475;-84
2021/01/23 10:04:43;;;;;;;23.33;15.60;;;3.20;95.30;;;;;;5012500;28;20803;-75
2021/01/23 10:07:10;;;;;;;25.50;17.73;;;3.40;92.90;;;;;;5009867;28;20452;-81
2021/01/23 10:09:37;;;;;;;24.70;16.70;;;3.60;93.20;;;;;;5012315;28;20460;-82
2021/01/23 10:12:06;;;;;;;24.80;17.60;;;3.70;90.60;;;;;;5019397;28;20510;-82
2021/01/23 10:14:33;;;;;;;27.73;16.97;;;3.40;89.20;;;;;;5025950;28;20601;-80
2021/01/23 10:16:59;;;;;;;22.00;15.70;;;3.10;89.60;;;;;;5013557;28;20525;-80
2021/01/23 10:19:26;;;;;;;29.40;18.60;;;3.20;92.10;;;;;;5011572;28;20472;-80
2021/01/23 10:21:52;;;;;;;22.53;16.00;;;3.30;92.50;;;;;;5012140;28;20542;-82
2021/01/23 10:24:19;;;;;;;24.77;16.20;;;3.20;90.00;;;;;;5015984;28;21351;-81
2021/01/23 10:26:46;;;;;;;24.70;16.40;;;3.00;91.10;;;;;;5014989;28;20478;-81
2021/01/23 10:29:14;;;;;;;21.97;16.13;;;3.10;91.70;;;;;;5018439;28;20977;-82
2021/01/23 10:31:41;;;;;;;18.90;13.67;;;3.00;90.60;;;;;;5016144;28;20463;-82
2021/01/23 10:34:08;;;;;;;19.93;15.37;;;3.20;93.10;;;;;;5016917;28;20443;-82
2021/01/23 10:36:34;;;;;;;23.63;14.67;;;3.20;91.50;;;;;;5020709;28;20475;-82
2021/01/23 10:39:02;;;;;;;25.20;15.43;;;3.10;90.60;;;;;;5020772;28;21332;-83
2021/01/23 10:41:29;;;;;;;24.27;16.87;;;3.30;93.20;;;;;;5014328;28;20463;-82
2021/01/23 10:43:56;;;;;;;23.07;14.60;;;3.30;89.90;;;;;;5017301;28;20978;-83
2021/01/23 10:46:23;;;;;;;22.43;14.83;;;3.00;90.00;;;;;;5016979;28;20455;-83
2021/01/23 10:48:50;;;;;;;20.70;15.27;;;3.00;90.40;;;;;;5017549;28;20528;-82
2021/01/23 10:51:17;;;;;;;23.10;15.80;;;3.00;91.40;;;;;;5017365;28;20458;-82
2021/01/23 10:53:46;;;;;;;24.47;15.63;;;3.20;91.20;;;;;;5021724;28;20461;-82
2021/01/23 10:56:13;;;;;;;23.80;15.30;;;3.20;91.00;;;;;;5014989;28;20464;-81
2021/01/23 10:58:39;;;;;;;19.70;14.40;;;3.30;91.00;;;;;;5013128;28;20482;-83
2021/01/23 11:01:06;;;;;;;21.20;14.90;;;3.40;90.90;;;;;;5026179;28;20453;-84
2021/01/23 11:03:34;;;;;;;23.70;15.90;;;3.40;90.10;;;;;;5025409;28;20467;-82
2021/01/23 11:06:00;;;;;;;26.23;16.90;;;3.50;91.40;;;;;;5029214;28;20451;-82
2021/01/23 11:08:27;;;;;;;23.73;14.37;;;3.50;90.00;;;;;;5019280;28;20444;-82
2021/01/23 11:10:54;;;;;;;20.63;15.13;;;3.60;88.60;;;;;;5024977;28;20454;-82
2021/01/23 11:13:21;;;;;;;20.43;14.27;;;3.50;85.50;;;;;;5016988;28;21012;-83
2021/01/23 11:15:48;;;;;;;22.30;15.47;;;3.30;86.50;;;;;;5016420;28;20633;-78
2021/01/23 11:18:17;;;;;;;21.63;14.70;;;3.30;87.20;;;;;;5019781;28;20466;-84
2021/01/23 11:20:45;;;;;;;19.90;13.47;;;3.40;87.00;;;;;;5018478;28;20459;-86
2021/01/23 11:23:11;;;;;;;23.53;14.30;;;3.50;85.90;;;;;;5020024;28;20447;-83
2021/01/23 11:25:38;;;;;;;21.20;14.87;;;3.60;85.50;;;;;;5015245;28;20440;-86
2021/01/23 11:28:06;;;;;;;20.10;14.70;;;3.60;88.50;;;;;;5018857;28;20463;-90
2021/01/23 11:30:35;;;;;;;22.80;13.93;;;3.40;84.80;;;;;;5015118;28;20994;-85
2021/01/23 11:33:02;;;;;;;20.00;14.47;;;3.50;85.30;;;;;;5018362;28;20462;-86
2021/01/23 11:35:31;;;;;;;20.40;15.07;;;4.00;86.00;;;;;;5019218;28;20523;-85
2021/01/23 11:38:01;;;;;;;18.27;13.13;;;4.20;83.30;;;;;;5017959;28;20502;-86
2021/01/23 11:40:28;;;;;;;20.90;14.63;;;4.60;84.70;;;;;;5018667;28;20465;-86
2021/01/23 11:42:55;;;;;;;20.70;13.87;;;4.60;83.40;;;;;;5017394;28;20538;-86
2021/01/23 11:45:23;;;;;;;17.10;13.43;;;4.50;81.50;;;;;;5010553;28;20629;-86
2021/01/23 11:47:51;;;;;;;17.17;12.73;;;4.30;82.00;;;;;;5012772;28;20451;-86
2021/01/23 11:50:19;;;;;;;15.87;12.47;;;4.30;82.20;;;;;;5011738;28;20470;-85
2021/01/23 11:52:45;;;;;;;15.20;11.73;;;4.40;81.70;;;;;;5016150;28;20450;-85
2021/01/23 11:55:14;;;;;;;14.50;10.97;;;4.50;81.60;;;;;;5017791;28;20464;-85
2021/01/23 11:57:42;;;;;;;18.90;12.60;;;4.70;80.40;;;;;;5018679;28;20471;-86
2021/01/23 12:00:10;;;;;;;14.00;11.00;;;5.00;81.50;;;;;;5020579;28;20482;-85
2021/01/23 12:02:37;;;;;;;17.40;11.97;;;5.10;79.30;;;;;;5018748;28;20451;-86
2021/01/23 12:05:05;;;;;;;14.90;12.20;;;5.10;79.00;;;;;;5025028;28;20559;-85
2021/01/23 12:07:32;;;;;;;15.23;12.13;;;5.20;78.30;;;;;;5033711;28;21006;-85
2021/01/23 12:09:59;;;;;;;13.33;10.50;;;5.40;79.80;;;;;;5028887;28;20467;-84
2021/01/23 12:12:32;;;;;;;14.70;11.10;;;5.30;76.60;;;;;;5030251;28;20475;-86
2021/01/23 12:14:59;;;;;;;11.73;10.20;;;4.90;76.20;;;;;;5015912;28;20460;-86
2021/01/23 12:17:27;;;;;;;12.63;9.77;;;5.00;77.50;;;;;;5019697;28;20582;-85
2021/01/23 12:19:54;;;;;;;14.60;10.80;;;5.10;78.00;;;;;;5018268;28;20468;-83
2021/01/23 12:22:20;;;;;;;13.70;10.73;;;5.00;77.80;;;;;;5022492;28;20465;-80
2021/01/23 12:24:50;;;;;;;16.97;11.00;;;4.90;77.70;;;;;;5014290;28;20440;-86
2021/01/23 12:27:21;;;;;;;16.43;10.57;;;4.60;77.30;;;;;;5020751;28;20985;-87
2021/01/23 12:29:50;;;;;;;11.67;10.00;;;4.70;78.60;;;;;;5020428;28;20484;-86
2021/01/23 12:32:17;;;;;;;13.50;10.07;;;4.40;77.60;;;;;;5026678;28;20448;-86
2021/01/23 12:34:47;;;;;;;14.20;10.93;;;4.20;77.60;;;;;;5032692;28;20497;-87
2021/01/23 12:37:19;;;;;;;13.10;10.10;;;4.30;78.50;;;;;;5031638;28;20547;-87
2021/01/23 12:39:46;;;;;;;11.50;9.67;;;4.20;77.50;;;;;;5013051;28;20465;-77
2021/01/23 12:42:13;;;;;;;13.30;10.20;;;4.00;77.30;;;;;;5011439;28;20471;-79
2021/01/23 12:44:39;;;;;;;15.67;11.30;;;4.10;78.00;;;;;;5003440;28;20453;-78
2021/01/23 12:47:08;;;;;;;12.20;10.57;;;4.20;78.20;;;;;;5009006;28;20487;-78
2021/01/23 12:49:34;;;;;;;11.50;9.60;;;4.40;77.30;;;;;;5008609;28;20444;-86
2021/01/23 12:52:02;;;;;;;12.80;10.40;;;4.50;76.40;;;;;;5017373;28;20523;-85
2021/01/23 12:54:29;;;;;;;11.13;9.17;;;4.90;77.40;;;;;;5013397;28;20436;-87
2021/01/23 12:56:56;;;;;;;11.10;9.03;;;5.20;75.60;;;;;;5016966;28;20465;-88
2021/01/23 12:59:25;;;;;;;10.83;8.60;;;5.20;74.90;;;;;;5015357;28;20479;-86